createdAt,value
2022-11-21T00:01:32.744Z,98700.53
2022-11-21T00:04:01.836Z,98701.38
2022-11-21T00:06:30.918Z,98701.41
2022-11-21T00:08:59.891Z,98703.16
2022-11-21T00:11:28.948Z,98699.06
2022-11-21T00:13:58.134Z,98712.81
2022-11-21T00:16:27.235Z,98710.28
2022-11-21T00:18:56.420Z,98715.56
2022-11-21T00:21:25.531Z,98715.56
2022-11-21T00:23:55.213Z,98723.38
2022-11-21T00:26:24.040Z,98723.41
2022-11-21T00:28:53.177Z,98723.44
2022-11-21T00:31:25.070Z,98731.13
2022-11-21T00:33:54.368Z,98731.25
2022-11-21T00:36:23.284Z,98735.59
2022-11-21T00:38:52.906Z,98737.28
2022-11-21T00:41:22.034Z,98735.59
2022-11-21T00:43:51.188Z,98734.78
2022-11-21T00:46:20.437Z,98739.06
2022-11-21T00:48:49.279Z,98738.16
2022-11-21T00:51:18.545Z,98746.81
2022-11-21T00:53:47.631Z,98745.16
2022-11-21T00:56:18.089Z,98737.53
2022-11-21T00:58:47.528Z,98743.50
2022-11-21T01:01:21.751Z,98751.22
2022-11-21T01:03:52.151Z,98748.75
2022-11-21T01:06:24.836Z,98759.94
2022-11-21T01:08:56.520Z,98753.13
2022-11-21T01:11:31.665Z,98753.94
2022-11-21T01:14:02.594Z,98756.53
2022-11-21T01:16:33.309Z,98762.56
2022-11-21T01:19:02.967Z,98754.78
2022-11-21T01:21:34.277Z,98755.59
2022-11-21T01:24:04.662Z,98748.75
2022-11-21T01:26:35.263Z,98756.50
2022-11-21T01:29:04.431Z,98755.63
2022-11-21T01:31:33.393Z,98754.81
2022-11-21T01:34:03.044Z,98760.03
2022-11-21T01:36:36.648Z,98760.84
2022-11-21T01:39:08.836Z,98772.03
2022-11-21T01:41:44.388Z,98774.56
2022-11-21T01:44:22.238Z,98777.97
2022-11-21T01:46:53.211Z,98777.97
2022-11-21T01:49:29.238Z,98780.47
2022-11-21T01:52:16.629Z,98787.38
2022-11-21T01:55:06.937Z,98782.88
2022-11-21T01:57:49.486Z,98787.97
2022-11-21T02:00:26.983Z,98791.50
2022-11-21T02:03:02.236Z,98789.69
2022-11-21T02:05:37.054Z,98793.94
2022-11-21T02:08:15.781Z,98795.53
2022-11-21T02:11:10.129Z,98806.69
2022-11-21T02:13:39.862Z,98813.59
2022-11-21T02:16:10.656Z,98808.41
2022-11-21T02:18:41.337Z,98816.09
2022-11-21T02:21:34.143Z,98819.44
2022-11-21T02:24:40.866Z,98822.84
2022-11-21T02:27:12.000Z,98817.69
2022-11-21T02:29:42.319Z,98826.34
2022-11-21T02:32:26.214Z,98828.81
2022-11-21T02:34:56.243Z,98832.28
2022-11-21T02:37:26.218Z,98836.56
2022-11-21T02:39:57.841Z,98839.94
2022-11-21T02:42:52.814Z,98849.22
2022-11-21T02:45:31.982Z,98847.53
2022-11-21T02:48:04.274Z,98855.31
2022-11-21T02:50:37.469Z,98854.31
2022-11-21T02:53:10.111Z,98862.81
2022-11-21T02:55:40.437Z,98862.75
2022-11-21T02:58:10.193Z,98863.59
2022-11-21T03:00:43.271Z,98866.03
2022-11-21T03:03:13.705Z,98872.94
2022-11-21T03:05:44.253Z,98875.38
2022-11-21T03:08:13.936Z,98873.53
2022-11-21T03:10:43.545Z,98886.47
2022-11-21T03:13:13.382Z,98893.22
2022-11-21T03:15:42.881Z,98896.56
2022-11-21T03:18:12.615Z,98901.66
2022-11-21T03:20:42.573Z,98910.19
2022-11-21T03:23:12.481Z,98901.44
2022-11-21T03:25:42.097Z,98909.97
2022-11-21T03:28:11.966Z,98903.75
2022-11-21T03:30:41.596Z,98902.78
2022-11-21T03:33:11.117Z,98905.44
2022-11-21T03:35:41.246Z,98910.53
2022-11-21T03:38:10.831Z,98911.88
2022-11-21T03:40:40.611Z,98913.44
2022-11-21T03:43:09.892Z,98915.97
2022-11-21T03:45:39.550Z,98915.00
2022-11-21T03:48:09.390Z,98918.28
2022-11-21T03:50:38.811Z,98919.16
2022-11-21T03:53:08.026Z,98918.00
2022-11-21T03:55:37.068Z,98928.50
2022-11-21T03:58:06.215Z,98923.78
2022-11-21T04:00:35.309Z,98924.88
2022-11-21T04:03:04.616Z,98917.66
2022-11-21T04:05:33.751Z,98923.31
2022-11-21T04:08:02.686Z,98932.88
2022-11-21T04:10:31.926Z,98931.09
2022-11-21T04:13:01.122Z,98936.16
2022-11-21T04:15:30.352Z,98932.56
2022-11-21T04:17:59.219Z,98941.66
2022-11-21T04:20:28.367Z,98940.50
2022-11-21T04:23:00.576Z,98945.91
2022-11-21T04:25:29.792Z,98952.81
2022-11-21T04:27:59.863Z,98943.84
2022-11-21T04:30:29.807Z,98945.41
2022-11-21T04:32:59.071Z,98947.81
2022-11-21T04:35:28.813Z,98939.25
2022-11-21T04:37:57.961Z,98938.38
2022-11-21T04:40:27.059Z,98937.41
2022-11-21T04:42:56.348Z,98937.06
2022-11-21T04:45:25.432Z,98940.75
2022-11-21T04:47:54.677Z,98934.25
2022-11-21T04:50:24.282Z,98937.56
2022-11-21T04:52:58.418Z,98942.31
2022-11-21T04:55:31.088Z,98946.47
2022-11-21T04:58:00.670Z,98947.28
2022-11-21T05:00:29.943Z,98937.75
2022-11-21T05:03:05.902Z,98946.94
2022-11-21T05:05:35.285Z,98940.75
2022-11-21T05:08:04.231Z,98943.34
2022-11-21T05:10:53.196Z,98933.47
2022-11-21T05:13:22.249Z,98934.16
2022-11-21T05:15:57.428Z,98929.41
2022-11-21T05:18:26.439Z,98932.94
2022-11-21T05:20:55.506Z,98933.66
2022-11-21T05:23:24.898Z,98925.59
2022-11-21T05:25:53.818Z,98927.06
2022-11-21T05:28:22.722Z,98923.34
2022-11-21T05:30:52.021Z,98923.25
2022-11-21T05:33:21.363Z,98923.81
2022-11-21T05:35:50.210Z,98927.69
2022-11-21T05:38:19.199Z,98924.28
2022-11-21T05:40:48.257Z,98925.72
2022-11-21T05:43:35.768Z,98921.94
2022-11-21T05:46:07.788Z,98914.09
2022-11-21T05:48:38.065Z,98917.28
2022-11-21T05:51:07.171Z,98919.06
2022-11-21T05:53:37.487Z,98919.66
2022-11-21T05:56:09.055Z,98920.31
2022-11-21T05:58:38.204Z,98915.75
2022-11-21T06:01:09.673Z,98908.25
2022-11-21T06:03:41.496Z,98908.06
2022-11-21T06:06:16.962Z,98900.75
2022-11-21T06:08:49.014Z,98889.63
2022-11-21T06:11:18.409Z,98887.56
2022-11-21T06:13:47.663Z,98895.28
2022-11-21T06:16:19.488Z,98888.66
2022-11-21T06:18:56.686Z,98887.94
2022-11-21T06:21:30.642Z,98883.19
2022-11-21T06:24:00.301Z,98883.97
2022-11-21T06:26:29.659Z,98880.31
2022-11-21T06:28:58.804Z,98876.56
2022-11-21T06:31:28.563Z,98873.88
2022-11-21T06:34:01.120Z,98867.63
2022-11-21T06:36:29.925Z,98869.41
2022-11-21T06:38:59.666Z,98870.59
2022-11-21T06:41:32.130Z,98870.13
2022-11-21T06:44:02.366Z,98860.41
2022-11-21T06:46:31.362Z,98854.47
2022-11-21T06:49:00.481Z,98852.69
2022-11-21T06:51:29.763Z,98847.28
2022-11-21T06:54:00.642Z,98841.78
2022-11-21T06:56:32.150Z,98833.81
2022-11-21T06:59:01.743Z,98833.69
2022-11-21T07:01:30.930Z,98834.38
2022-11-21T07:04:00.107Z,98831.22
2022-11-21T07:06:29.292Z,98819.94
2022-11-21T07:09:31.719Z,98820.06
2022-11-21T07:11:47.505Z,98820.72
2022-11-21T07:14:16.703Z,98813.84
2022-11-21T07:16:45.856Z,98795.28
2022-11-21T07:19:15.023Z,98800.50
2022-11-21T07:21:44.275Z,98790.69
2022-11-21T07:24:14.042Z,98792.97
2022-11-21T07:26:43.307Z,98786.44
2022-11-21T07:29:12.081Z,98775.88
2022-11-21T07:31:41.125Z,98781.63
2022-11-21T07:34:10.114Z,98771.78
2022-11-21T07:36:41.415Z,98767.03
2022-11-21T07:39:10.276Z,98761.63
2022-11-21T07:41:42.382Z,98765.81
2022-11-21T07:44:11.470Z,98763.78
2022-11-21T07:46:41.822Z,98761.19
2022-11-21T07:49:10.875Z,98750.53
2022-11-21T07:51:39.736Z,98753.94
2022-11-21T07:54:09.258Z,98752.31
2022-11-21T07:56:38.524Z,98742.88
2022-11-21T07:59:07.639Z,98734.31
2022-11-21T08:01:39.235Z,98743.72
2022-11-21T08:04:12.036Z,98736.78
2022-11-21T08:06:41.152Z,98733.28
2022-11-21T08:09:10.210Z,98733.50
2022-11-21T08:11:39.218Z,98730.44
2022-11-21T08:14:08.158Z,98729.34
2022-11-21T08:16:37.765Z,98725.78
2022-11-21T08:19:07.789Z,98721.38
2022-11-21T08:21:36.841Z,98712.31
2022-11-21T08:24:06.532Z,98714.41
2022-11-21T08:26:35.404Z,98717.03
2022-11-21T08:29:04.554Z,98709.84
2022-11-21T08:31:33.680Z,98708.88
2022-11-21T08:34:03.068Z,98703.56
2022-11-21T08:36:32.459Z,98700.81
2022-11-21T08:39:01.789Z,98702.56
2022-11-21T08:41:57.044Z,98701.47
2022-11-21T08:44:26.456Z,98699.19
2022-11-21T08:46:56.824Z,98703.94
2022-11-21T08:49:26.202Z,98701.94
2022-11-21T08:51:55.746Z,98698.56
2022-11-21T08:54:26.751Z,98699.81
2022-11-21T08:56:56.149Z,98698.56
2022-11-21T08:59:24.987Z,98687.03
2022-11-21T09:01:54.279Z,98689.91
2022-11-21T09:04:23.162Z,98692.47
2022-11-21T09:06:52.583Z,98692.28
2022-11-21T09:09:25.362Z,98690.56
2022-11-21T09:11:55.011Z,98692.41
2022-11-21T09:14:42.877Z,98686.19
2022-11-21T09:17:34.176Z,98677.59
2022-11-21T09:20:03.527Z,98686.94
2022-11-21T09:22:35.435Z,98676.47
2022-11-21T09:25:05.563Z,98676.72
2022-11-21T09:27:34.621Z,98676.34
2022-11-21T09:30:03.890Z,98676.91
2022-11-21T09:32:33.645Z,98666.44
2022-11-21T09:35:02.624Z,98661.19
2022-11-21T09:37:32.076Z,98664.47
2022-11-21T09:40:02.044Z,98655.69
2022-11-21T09:42:36.863Z,98657.06
2022-11-21T09:45:22.628Z,98653.91
2022-11-21T09:47:53.563Z,98656.28
2022-11-21T09:50:42.764Z,98654.69
2022-11-21T09:53:15.445Z,98652.50
2022-11-21T09:55:47.343Z,98652.09
2022-11-21T09:58:33.117Z,98652.25
2022-11-21T10:01:02.863Z,98647.31
2022-11-21T10:03:37.501Z,98637.50
2022-11-21T10:06:15.260Z,98645.25
2022-11-21T10:09:13.309Z,98643.13
2022-11-21T10:12:26.790Z,98638.88
2022-11-21T10:15:06.259Z,98641.38
2022-11-21T10:18:17.134Z,98640.66
2022-11-21T10:21:12.830Z,98643.41
2022-11-21T10:24:00.035Z,98641.63
2022-11-21T10:26:51.982Z,98635.00
2022-11-21T10:29:24.144Z,98635.28
2022-11-21T10:31:58.776Z,98633.63
2022-11-21T10:34:32.686Z,98636.78
2022-11-21T10:37:38.267Z,98641.94
2022-11-21T10:40:16.970Z,98639.31
2022-11-21T10:42:49.497Z,98637.34
2022-11-21T10:45:20.177Z,98638.59
2022-11-21T10:47:51.578Z,98632.50
2022-11-21T10:50:56.171Z,98633.97
2022-11-21T10:53:45.315Z,98633.44
2022-11-21T10:56:21.597Z,98638.75
2022-11-21T10:58:56.160Z,98629.72
2022-11-21T11:01:30.319Z,98632.72
2022-11-21T11:04:28.506Z,98639.66
2022-11-21T11:07:00.993Z,98633.72
2022-11-21T11:09:35.447Z,98641.13
2022-11-21T11:12:48.098Z,98633.38
2022-11-21T11:15:26.191Z,98642.75
2022-11-21T11:18:09.457Z,98637.47
2022-11-21T11:20:39.132Z,98637.94
2022-11-21T11:23:29.197Z,98640.13
2022-11-21T11:26:00.550Z,98630.38
2022-11-21T11:28:37.245Z,98640.97
2022-11-21T11:31:06.957Z,98638.25
2022-11-21T11:33:41.002Z,98639.09
2022-11-21T11:36:35.344Z,98649.59
2022-11-21T11:39:39.862Z,98640.38
2022-11-21T11:42:40.432Z,98646.81
2022-11-21T11:45:34.938Z,98639.06
2022-11-21T11:48:13.569Z,98643.88
2022-11-21T11:50:52.875Z,98645.91
2022-11-21T11:53:27.714Z,98648.19
2022-11-21T11:56:07.258Z,98644.28
2022-11-21T11:58:43.020Z,98647.00
2022-11-21T12:01:31.930Z,98641.22
2022-11-21T12:04:03.779Z,98642.59
2022-11-21T12:07:54.027Z,98644.72
2022-11-21T12:09:48.994Z,98640.28
2022-11-21T12:12:40.633Z,98639.91
2022-11-21T12:15:49.134Z,98641.53
2022-11-21T12:18:21.254Z,98641.16
2022-11-21T12:21:09.621Z,98641.50
2022-11-21T12:23:47.274Z,98634.88
2022-11-21T12:26:22.847Z,98636.13
2022-11-21T12:29:01.584Z,98644.44
2022-11-21T12:31:57.252Z,98642.47
2022-11-21T12:34:41.080Z,98644.63
2022-11-21T12:37:20.930Z,98642.50
2022-11-21T12:39:54.317Z,98643.34
2022-11-21T12:42:50.807Z,98648.66
2022-11-21T12:45:35.704Z,98653.13
2022-11-21T12:48:26.344Z,98651.06
2022-11-21T12:51:46.015Z,98659.84
2022-11-21T12:54:44.860Z,98657.69
2022-11-21T12:57:21.280Z,98668.72
2022-11-21T12:59:53.394Z,98666.16
2022-11-21T13:02:40.658Z,98670.03
2022-11-21T13:05:15.019Z,98670.88
2022-11-21T13:07:46.457Z,98675.50
2022-11-21T13:10:18.723Z,98669.53
2022-11-21T13:13:15.817Z,98678.22
2022-11-21T13:15:59.371Z,98677.34
2022-11-21T13:18:35.319Z,98679.25
2022-11-21T13:21:04.381Z,98679.69
2022-11-21T13:23:43.185Z,98686.41
2022-11-21T13:26:27.418Z,98689.84
2022-11-21T13:29:15.946Z,98685.72
2022-11-21T13:31:45.057Z,98685.34
2022-11-21T13:34:35.324Z,98692.78
2022-11-21T13:37:05.558Z,98693.25
2022-11-21T13:39:36.849Z,98695.91
2022-11-21T13:42:26.966Z,98690.81
2022-11-21T13:44:56.419Z,98697.94
2022-11-21T13:48:06.292Z,98694.94
2022-11-21T13:50:59.080Z,98696.41
2022-11-21T13:53:58.450Z,98699.50
2022-11-21T13:56:39.289Z,98713.97
2022-11-21T13:59:52.765Z,98704.94
2022-11-21T14:02:32.193Z,98704.84
2022-11-21T14:05:37.613Z,98696.41
2022-11-21T14:08:23.479Z,98707.81
2022-11-21T14:10:54.041Z,98707.31
2022-11-21T14:13:39.302Z,98707.19
2022-11-21T14:16:36.740Z,98707.19
2022-11-21T14:19:06.935Z,98708.38
2022-11-21T14:21:36.278Z,98712.88
2022-11-21T14:24:14.388Z,98708.56
2022-11-21T14:26:49.137Z,98706.78
2022-11-21T14:29:28.248Z,98714.00
2022-11-21T14:31:57.703Z,98713.31
2022-11-21T14:34:29.888Z,98717.50
2022-11-21T14:37:02.111Z,98721.88
2022-11-21T14:39:40.014Z,98720.06
2022-11-21T14:42:15.984Z,98714.13
2022-11-21T14:44:45.847Z,98719.31
2022-11-21T14:47:26.112Z,98720.97
2022-11-21T14:50:02.406Z,98723.00
2022-11-21T14:52:36.176Z,98730.03
2022-11-21T14:55:32.937Z,98729.16
2022-11-21T14:57:59.069Z,98730.31
2022-11-21T15:00:58.125Z,98729.50
2022-11-21T15:03:24.419Z,98736.31
2022-11-21T15:06:07.473Z,98737.25
2022-11-21T15:11:41.313Z,98733.94
2022-11-21T15:14:41.167Z,98728.78
2022-11-21T15:17:15.728Z,98738.44
2022-11-21T15:19:48.250Z,98731.59
2022-11-21T15:22:38.746Z,98734.09
2022-11-21T15:25:21.306Z,98740.31
2022-11-21T15:28:05.880Z,98731.84
2022-11-21T15:30:36.859Z,98732.88
2022-11-21T15:33:22.175Z,98733.81
2022-11-21T15:35:58.922Z,98742.31
2022-11-21T15:38:44.523Z,98740.69
2022-11-21T15:41:16.782Z,98735.78
2022-11-21T15:43:51.675Z,98745.34
2022-11-21T15:46:27.893Z,98740.91
2022-11-21T15:49:30.965Z,98740.16
2022-11-21T15:52:11.523Z,98740.25
2022-11-21T15:54:41.018Z,98743.00
2022-11-21T15:57:13.743Z,98745.47
2022-11-21T15:59:44.380Z,98746.63
2022-11-21T16:02:15.464Z,98752.47
2022-11-21T16:04:45.143Z,98750.91
2022-11-21T16:07:20.275Z,98751.81
2022-11-21T16:09:49.588Z,98744.03
2022-11-21T16:12:18.879Z,98747.50
2022-11-21T16:14:47.953Z,98739.94
2022-11-21T16:17:17.392Z,98752.03
2022-11-21T16:19:47.218Z,98751.25
2022-11-21T16:22:19.830Z,98752.16
2022-11-21T16:24:49.567Z,98754.06
2022-11-21T16:27:20.474Z,98752.47
2022-11-21T16:29:49.605Z,98747.44
2022-11-21T16:32:18.802Z,98750.91
2022-11-21T16:34:49.051Z,98746.56
2022-11-21T16:37:20.226Z,98742.31
2022-11-21T16:39:58.015Z,98749.22
2022-11-21T16:42:27.413Z,98754.34
2022-11-21T16:44:56.652Z,98751.75
2022-11-21T16:47:26.261Z,98762.09
2022-11-21T16:49:55.641Z,98752.63
2022-11-21T16:52:27.739Z,98757.81
2022-11-21T16:54:57.301Z,98759.66
2022-11-21T16:57:26.568Z,98756.28
2022-11-21T16:59:57.777Z,98754.63
2022-11-21T17:02:28.183Z,98759.78
2022-11-21T17:04:57.540Z,98755.50
2022-11-21T17:07:27.827Z,98752.91
2022-11-21T17:09:56.894Z,98759.00
2022-11-21T17:12:25.821Z,98753.88
2022-11-21T17:14:55.482Z,98762.56
2022-11-21T17:17:26.098Z,98765.09
2022-11-21T17:19:55.740Z,98760.00
2022-11-21T17:22:27.504Z,98753.28
2022-11-21T17:25:01.030Z,98747.28
2022-11-21T17:27:32.649Z,98759.28
2022-11-21T17:30:02.762Z,98757.56
2022-11-21T17:32:31.713Z,98762.84
2022-11-21T17:35:00.826Z,98755.97
2022-11-21T17:37:30.247Z,98756.88
2022-11-21T17:40:00.616Z,98761.28
2022-11-21T17:42:29.750Z,98767.28
2022-11-21T17:45:00.027Z,98758.78
2022-11-21T17:47:30.720Z,98759.59
2022-11-21T17:50:06.240Z,98753.13
2022-11-21T17:52:36.137Z,98754.22
2022-11-21T17:55:09.933Z,98750.84
2022-11-21T17:57:40.252Z,98749.97
2022-11-21T18:00:10.680Z,98749.16
2022-11-21T18:02:39.954Z,98742.28
2022-11-21T18:05:09.702Z,98747.44
2022-11-21T18:07:38.782Z,98741.50
2022-11-21T18:12:57.498Z,98741.66
2022-11-21T18:15:26.866Z,98743.47
2022-11-21T18:17:56.079Z,98744.34
2022-11-21T18:20:25.057Z,98747.81
2022-11-21T18:22:54.732Z,98747.84
2022-11-21T18:25:23.797Z,98741.00
2022-11-21T18:27:54.773Z,98742.03
2022-11-21T18:30:24.052Z,98739.56
2022-11-21T18:32:53.057Z,98736.13
2022-11-21T18:35:22.127Z,98743.88
2022-11-21T18:37:51.348Z,98741.28
2022-11-21T18:40:20.507Z,98733.53
2022-11-21T18:42:50.038Z,98737.03
2022-11-21T18:45:18.907Z,98742.16
2022-11-21T18:47:48.462Z,98739.56
2022-11-21T18:50:18.401Z,98735.25
2022-11-21T18:52:47.440Z,98745.53
2022-11-21T18:55:16.680Z,98743.88
2022-11-21T18:57:46.951Z,98736.13
2022-11-21T19:00:17.471Z,98738.75
2022-11-21T19:02:47.982Z,98731.81
2022-11-21T19:05:20.473Z,98737.84
2022-11-21T19:07:49.864Z,98730.13
2022-11-21T19:10:42.192Z,98729.22
2022-11-21T19:13:08.260Z,98728.34
2022-11-21T19:15:40.418Z,98728.34
2022-11-21T19:18:09.740Z,98724.03
2022-11-21T19:20:40.660Z,98710.25
2022-11-21T19:23:10.045Z,98715.53
2022-11-21T19:25:40.506Z,98712.09
2022-11-21T19:28:09.702Z,98706.34
2022-11-21T19:30:38.642Z,98704.56
2022-11-21T19:33:07.909Z,98691.59
2022-11-21T19:35:39.023Z,98697.50
2022-11-21T19:38:08.176Z,98694.06
2022-11-21T19:40:58.083Z,98688.84
2022-11-21T19:43:30.982Z,98686.31
2022-11-21T19:46:04.590Z,98677.59
2022-11-21T19:48:33.620Z,98680.47
2022-11-21T19:51:04.249Z,98675.34
2022-11-21T19:53:40.331Z,98672.81
2022-11-21T19:56:11.289Z,98678.88
2022-11-21T19:58:41.276Z,98678.03
2022-11-21T20:01:16.506Z,98673.56
2022-11-21T20:03:50.224Z,98674.50
2022-11-21T20:06:25.799Z,98667.75
2022-11-21T20:08:57.322Z,98666.88
2022-11-21T20:11:27.745Z,98665.13
2022-11-21T20:14:00.116Z,98671.16
2022-11-21T20:16:33.204Z,98664.19
2022-11-21T20:19:07.716Z,98659.13
2022-11-21T20:21:38.779Z,98658.16
2022-11-21T20:24:09.133Z,98655.59
2022-11-21T20:26:38.839Z,98651.38
2022-11-21T20:29:08.285Z,98644.59
2022-11-21T20:31:38.651Z,98643.88
2022-11-21T20:34:13.395Z,98643.91
2022-11-21T20:36:44.079Z,98637.81
2022-11-21T20:39:18.437Z,98646.28
2022-11-21T20:41:49.150Z,98642.94
2022-11-21T20:47:10.856Z,98640.41
2022-11-21T20:49:40.432Z,98643.94
2022-11-21T20:54:58.316Z,98639.63
2022-11-21T20:57:30.470Z,98639.63
2022-11-21T20:59:59.928Z,98642.16
2022-11-21T21:02:28.806Z,98645.66
2022-11-21T21:04:58.198Z,98644.81
2022-11-21T21:07:27.320Z,98637.94
2022-11-21T21:09:58.044Z,98640.56
2022-11-21T21:12:28.530Z,98641.47
2022-11-21T21:14:58.161Z,98643.19
2022-11-21T21:17:26.935Z,98642.38
2022-11-21T21:19:55.930Z,98634.63
2022-11-21T21:22:24.946Z,98634.66
2022-11-21T21:24:54.086Z,98634.72
2022-11-21T21:27:23.008Z,98632.19
2022-11-21T21:29:51.896Z,98624.44
2022-11-21T21:32:20.755Z,98631.28
2022-11-21T21:34:49.878Z,98628.81
2022-11-21T21:37:21.757Z,98630.38
2022-11-21T21:39:51.308Z,98633.91
2022-11-21T21:42:20.330Z,98624.50
2022-11-21T21:44:49.519Z,98627.88
2022-11-21T21:47:22.216Z,98628.69
2022-11-21T21:49:51.922Z,98626.13
2022-11-21T21:52:20.774Z,98623.63
2022-11-21T21:54:49.875Z,98626.22
2022-11-21T21:57:18.863Z,98626.28
2022-11-21T21:59:47.766Z,98627.97
2022-11-21T22:02:17.029Z,98625.50
2022-11-21T22:04:50.599Z,98622.00
2022-11-21T22:07:21.136Z,98630.63
2022-11-21T22:09:50.194Z,98622.81
2022-11-21T22:12:19.076Z,98621.06
2022-11-21T22:14:48.156Z,98617.59
2022-11-21T22:17:17.692Z,98617.47
2022-11-21T22:19:46.449Z,98621.81
2022-11-21T22:22:15.449Z,98619.25
2022-11-21T22:24:44.819Z,98613.22
2022-11-21T22:27:13.804Z,98619.25
2022-11-21T22:29:43.115Z,98618.41
2022-11-21T22:32:16.635Z,98618.41
2022-11-21T22:34:48.458Z,98620.97
2022-11-21T22:37:17.448Z,98625.34
2022-11-21T22:39:46.431Z,98634.00
2022-11-21T22:42:15.369Z,98630.69
2022-11-21T22:44:44.436Z,98634.28
2022-11-21T22:47:13.214Z,98626.53
2022-11-21T22:49:42.264Z,98626.59
2022-11-21T22:52:11.306Z,98622.31
2022-11-21T22:54:40.686Z,98621.47
2022-11-21T22:57:09.496Z,98619.75
2022-11-21T22:59:38.591Z,98620.66
2022-11-21T23:02:07.742Z,98625.72
2022-11-21T23:04:56.923Z,98621.50
2022-11-21T23:07:25.930Z,98620.66
2022-11-21T23:09:54.823Z,98615.50
2022-11-21T23:12:24.248Z,98618.16
2022-11-21T23:14:53.919Z,98626.72
2022-11-21T23:17:22.837Z,98624.19
2022-11-21T23:19:51.703Z,98624.16
2022-11-21T23:22:20.740Z,98632.78
2022-11-21T23:24:49.617Z,98632.88
2022-11-21T23:27:18.579Z,98629.44
2022-11-21T23:29:47.512Z,98626.09
2022-11-21T23:32:16.509Z,98626.94
2022-11-21T23:34:45.498Z,98629.50
2022-11-21T23:37:14.430Z,98627.75
2022-11-21T23:39:43.947Z,98626.00
2022-11-21T23:42:12.803Z,98629.38
2022-11-21T23:44:41.834Z,98631.97
2022-11-21T23:47:10.639Z,98634.59
2022-11-21T23:49:39.659Z,98632.00
2022-11-21T23:52:08.724Z,98629.38
2022-11-21T23:54:37.700Z,98632.03
2022-11-21T23:57:07.077Z,98630.41
2022-11-21T23:59:35.889Z,98636.44
